Time;durP1;ratioP1;P1;durP2;ratioP2;P2;SDS_P1;SDS_P2;PMS_P1;PMS_P2;Temp;Humidity;BMP_temperature;BMP_pressure;BME280_temperature;BME280_humidity;BME280_pressure;Samples;Min_cycle;Max_cycle;Signal;HPM_P1;HPM_P2
2022/08/22 00:01:40;;;;;;;12.50;7.70;;;;;;;18.91;92.08;99517.72;4190823;28;22208;-64
2022/08/22 00:04:22;;;;;;;17.47;8.43;;;;;;;18.77;92.64;99513.50;4175614;28;20301;-65
2022/08/22 00:06:58;;;;;;;15.73;8.20;;;;;;;18.76;92.95;99511.84;4205545;28;20409;-65
2022/08/22 00:09:37;;;;;;;17.33;7.97;;;;;;;18.71;93.45;99507.09;4183929;28;20642;-67
2022/08/22 00:12:08;;;;;;;13.80;8.10;;;;;;;18.69;93.71;99519.97;4177665;28;21758;-64
2022/08/22 00:14:40;;;;;;;14.13;8.70;;;;;;;18.72;93.62;99524.09;4207081;28;20541;-66
2022/08/22 00:17:30;;;;;;;21.83;9.10;;;;;;;18.83;92.74;99520.72;4200907;28;21173;-67
2022/08/22 00:20:17;;;;;;;16.23;8.27;;;;;;;18.70;94.00;99523.50;4192734;28;20293;-65
2022/08/22 00:23:04;;;;;;;17.10;8.40;;;;;;;18.76;93.73;99528.00;4198204;28;20672;-65
2022/08/22 00:26:08;;;;;;;16.10;8.70;;;;;;;18.72;94.02;99526.78;4189009;28;20236;-64
2022/08/22 00:28:40;;;;;;;15.83;8.03;;;;;;;18.74;93.82;99522.00;4198316;28;21139;-65
2022/08/22 00:31:10;;;;;;;14.57;8.57;;;;;;;18.71;93.91;99527.84;4210094;28;20274;-65
2022/08/22 00:33:50;;;;;;;18.80;8.50;;;;;;;18.68;94.16;99530.97;4194283;28;22985;-66
2022/08/22 00:36:25;;;;;;;16.47;7.87;;;;;;;18.73;94.09;99531.13;4200648;28;20233;-68
2022/08/22 00:39:17;;;;;;;10.47;7.70;;;;;;;18.68;94.23;99525.56;4194845;28;20644;-65
2022/08/22 00:42:07;;;;;;;13.63;8.23;;;;;;;18.72;93.89;99524.09;4200745;28;20233;-67
2022/08/22 00:45:13;;;;;;;12.37;7.53;;;;;;;18.73;93.77;99528.44;4183279;28;20237;-65
2022/08/22 00:48:17;;;;;;;15.10;8.47;;;;;;;18.71;94.04;99522.47;4195099;28;20233;-65
2022/08/22 00:51:19;;;;;;;16.23;8.70;;;;;;;18.67;93.80;99527.44;4201350;28;20236;-64
2022/08/22 00:53:48;;;;;;;15.93;8.03;;;;;;;18.64;93.59;99525.22;4192484;28;20240;-66
2022/08/22 00:56:25;;;;;;;24.63;9.10;;;;;;;18.50;94.52;99532.56;4190420;28;20245;-67
2022/08/22 00:59:15;;;;;;;14.57;8.53;;;;;;;18.50;94.59;99531.75;4221724;28;23945;-68
2022/08/22 01:02:03;;;;;;;15.93;8.57;;;;;;;18.58;94.16;99531.47;4203970;28;20246;-65
2022/08/22 01:04:46;;;;;;;15.07;7.87;;;;;;;18.61;93.73;99533.72;4199480;28;22156;-65
2022/08/22 01:07:39;;;;;;;14.67;8.17;;;;;;;18.58;93.94;99528.78;4190031;28;20523;-64
2022/08/22 01:10:44;;;;;;;12.53;8.33;;;;;;;18.53;94.13;99534.81;4198057;28;20232;-65
2022/08/22 01:13:23;;;;;;;14.63;8.37;;;;;;;18.51;94.15;99531.50;4178066;28;20309;-66
2022/08/22 01:15:58;;;;;;;14.27;7.67;;;;;;;18.47;94.37;99533.00;4187688;28;20475;-65
2022/08/22 01:18:44;;;;;;;18.70;8.97;;;;;;;18.36;94.86;99522.94;4180341;28;21140;-66
2022/08/22 01:21:13;;;;;;;15.93;8.97;;;;;;;18.30;95.49;99529.19;4208831;28;23608;-66
2022/08/22 01:24:12;;;;;;;16.77;9.07;;;;;;;18.22;96.27;99535.66;4193571;28;23535;-66
2022/08/22 01:27:15;;;;;;;20.40;12.00;;;;;;;18.13;96.58;99527.00;4189249;28;21160;-65
2022/08/22 01:30:04;;;;;;;23.10;12.67;;;;;;;18.19;96.33;99532.56;4187375;28;20234;-68
2022/08/22 01:32:55;;;;;;;20.60;12.70;;;;;;;18.14;96.40;99539.44;4195810;28;20226;-65
2022/08/22 01:35:58;;;;;;;22.47;12.73;;;;;;;18.04;97.01;99539.06;4194883;28;20301;-66
2022/08/22 01:38:38;;;;;;;20.17;11.93;;;;;;;18.08;97.09;99534.91;4193523;28;20287;-64
2022/08/22 01:41:23;;;;;;;20.70;12.73;;;;;;;18.10;96.50;99535.53;4187425;28;20243;-65
2022/08/22 01:43:59;;;;;;;19.30;11.93;;;;;;;18.06;96.92;99537.00;4204503;28;20237;-65
2022/08/22 01:46:44;;;;;;;21.80;11.07;;;;;;;18.06;96.97;99542.38;4190797;28;21087;-67
2022/08/22 01:49:14;;;;;;;17.03;9.80;;;;;;;18.06;96.97;99537.00;4195742;28;27610;-67
2022/08/22 01:51:48;;;;;;;15.97;9.47;;;;;;;18.08;96.86;99537.63;4186497;28;21696;-44
2022/08/22 01:54:33;;;;;;;13.77;9.63;;;;;;;18.13;96.63;99540.47;4187185;28;20291;-46
2022/08/22 01:57:02;;;;;;;17.03;9.90;;;;;;;18.17;96.31;99542.72;4190375;28;20288;-44
2022/08/22 01:59:33;;;;;;;16.33;9.50;;;;;;;18.25;95.64;99532.53;4187933;28;20296;-64
2022/08/22 02:02:23;;;;;;;16.37;9.47;;;;;;;18.15;96.09;99537.56;4176967;28;20237;-64
2022/08/22 02:05:02;;;;;;;18.43;10.10;;;;;;;18.16;95.96;99535.69;4203334;28;20245;-65
2022/08/22 02:07:55;;;;;;;17.00;9.40;;;;;;;18.21;95.97;99538.56;4178874;28;20229;-64
2022/08/22 02:10:41;;;;;;;13.73;9.27;;;;;;;18.17;96.18;99532.81;4203493;28;21539;-67
2022/08/22 02:13:49;;;;;;;16.33;8.60;;;;;;;18.16;96.31;99538.41;4200195;28;20229;-67
2022/08/22 02:16:37;;;;;;;14.13;8.20;;;;;;;18.19;95.88;99540.66;4189116;28;20400;-67
2022/08/22 02:19:13;;;;;;;17.83;9.43;;;;;;;18.22;95.43;99534.84;4193536;28;20234;-67
2022/08/22 02:22:00;;;;;;;15.70;8.53;;;;;;;18.29;95.14;99536.44;4186367;28;21120;-66
2022/08/22 02:24:33;;;;;;;12.97;8.70;;;;;;;18.30;94.86;99542.66;4189946;28;20286;-67
2022/08/22 02:27:18;;;;;;;17.00;9.13;;;;;;;18.31;94.86;99544.31;4184674;28;20884;-65
2022/08/22 02:29:48;;;;;;;17.57;8.60;;;;;;;18.26;95.09;99536.03;4190772;28;20249;-67
2022/08/22 02:32:26;;;;;;;18.90;9.33;;;;;;;18.29;95.41;99543.72;4192375;28;20275;-65
2022/08/22 02:35:02;;;;;;;17.27;9.37;;;;;;;18.17;95.20;99542.72;4194394;28;20892;-65
2022/08/22 02:38:04;;;;;;;16.43;9.50;;;;;;;18.21;95.43;99538.56;4193643;28;21054;-65
2022/08/22 02:40:44;;;;;;;16.80;9.07;;;;;;;18.23;95.44;99539.19;4205898;28;20235;-65
2022/08/22 02:43:22;;;;;;;15.87;9.33;;;;;;;18.19;95.66;99537.94;4192020;28;20239;-64
2022/08/22 02:45:57;;;;;;;15.10;8.43;;;;;;;18.19;95.94;99543.34;4181052;28;20245;-66
2022/08/22 02:48:33;;;;;;;16.20;8.83;;;;;;;18.14;95.47;99534.06;4199367;28;20247;-64
2022/08/22 02:51:07;;;;;;;16.43;9.27;;;;;;;18.13;96.06;99543.16;4186218;28;20302;-65
2022/08/22 02:53:57;;;;;;;18.33;8.87;;;;;;;18.09;96.46;99547.31;4186801;28;20319;-65
2022/08/22 02:56:31;;;;;;;14.97;8.97;;;;;;;18.18;95.73;99547.09;4204404;28;20284;-67
2022/08/22 02:59:14;;;;;;;13.80;8.30;;;;;;;18.19;95.26;99551.41;4207130;28;20529;-64
2022/08/22 03:01:44;;;;;;;15.90;8.53;;;;;;;18.18;95.46;99544.41;4193922;28;20891;-66
2022/08/22 03:04:31;;;;;;;16.30;8.93;;;;;;;18.20;95.79;99548.53;4197719;28;20253;-64
2022/08/22 03:07:06;;;;;;;14.83;8.73;;;;;;;18.22;95.66;99551.00;4190657;28;20583;-64
2022/08/22 03:09:43;;;;;;;19.17;8.50;;;;;;;18.35;94.91;99561.66;4194482;28;21241;-65
2022/08/22 03:12:20;;;;;;;15.07;9.70;;;;;;;18.12;95.85;99551.44;4206276;28;21727;-65
2022/08/22 03:15:04;;;;;;;16.10;9.30;;;;;;;18.03;96.63;99556.28;4197420;28;20369;-64
2022/08/22 03:17:55;;;;;;;16.03;9.17;;;;;;;18.10;96.59;99553.56;4199183;28;20351;-67
2022/08/22 03:21:17;;;;;;;13.90;9.17;;;;;;;18.16;96.53;99554.56;4189958;28;20234;-66
2022/08/22 03:23:47;;;;;;;13.93;9.43;;;;;;;18.15;96.22;99559.13;4180842;28;20327;-65
2022/08/22 03:26:17;;;;;;;15.50;9.27;;;;;;;18.21;95.73;99552.03;4193309;28;20231;-64
2022/08/22 03:28:59;;;;;;;20.43;9.37;;;;;;;18.25;95.52;99553.25;4191292;28;20248;-66
2022/08/22 03:31:27;;;;;;;15.73;8.63;;;;;;;18.31;95.29;99560.47;4187309;28;20630;-65
2022/08/22 03:34:20;;;;;;;16.60;9.10;;;;;;;18.28;95.62;99561.72;4187134;28;20590;-66
2022/08/22 03:37:13;;;;;;;17.43;9.30;;;;;;;18.18;96.15;99565.94;4199951;28;20549;-65
2022/08/22 03:40:01;;;;;;;14.13;9.47;;;;;;;18.19;96.73;99568.44;4203932;28;21371;-67
2022/08/22 03:42:55;;;;;;;16.47;9.17;;;;;;;18.14;96.80;99565.53;4197447;28;20242;-66
2022/08/22 03:46:00;;;;;;;15.77;9.37;;;;;;;18.12;97.29;99559.53;4203741;28;20767;-65
2022/08/22 03:49:03;;;;;;;16.20;8.90;;;;;;;18.27;96.34;99567.34;4200986;28;20372;-64
2022/08/22 03:52:04;;;;;;;14.37;8.47;;;;;;;18.23;96.31;99563.41;4196320;28;20683;-66
2022/08/22 03:55:01;;;;;;;12.13;8.73;;;;;;;18.31;95.71;99577.47;4245090;28;20251;-66
2022/08/22 03:58:05;;;;;;;14.77;8.67;;;;;;;18.24;96.24;99562.34;4205942;28;20292;-66
2022/08/22 04:01:06;;;;;;;16.13;8.60;;;;;;;18.30;95.74;99565.03;4205506;28;20315;-65
2022/08/22 04:03:56;;;;;;;16.60;8.83;;;;;;;18.32;95.54;99567.50;4272216;28;20801;-64
2022/08/22 04:06:35;;;;;;;15.00;8.73;;;;;;;18.26;96.00;99571.91;4229445;28;20230;-67
2022/08/22 04:09:22;;;;;;;19.70;9.10;;;;;;;18.30;95.92;99581.19;4277240;28;20241;-67
2022/08/22 04:12:00;;;;;;;17.33;8.87;;;;;;;18.35;95.13;99589.47;4213979;28;20300;-65
2022/08/22 04:14:35;;;;;;;18.57;9.53;;;;;;;18.34;95.65;99586.97;4212317;28;20232;-66
2022/08/22 04:17:37;;;;;;;16.50;8.77;;;;;;;18.48;95.32;99587.72;4243985;28;20300;-67
2022/08/22 04:20:11;;;;;;;17.83;9.00;;;;;;;18.54;94.75;99593.06;4205559;28;20283;-65
2022/08/22 04:23:03;;;;;;;12.53;8.33;;;;;;;18.53;94.47;99583.31;4194570;28;21767;-66
2022/08/22 04:25:38;;;;;;;17.57;9.40;;;;;;;18.58;93.97;99587.22;4209254;28;20244;-65
2022/08/22 04:28:07;;;;;;;15.40;9.27;;;;;;;18.53;94.31;99588.69;4202582;28;20233;-68
2022/08/22 04:30:41;;;;;;;17.10;9.07;;;;;;;18.56;94.25;99596.34;4194929;28;20303;-66
2022/08/22 04:33:14;;;;;;;14.50;8.70;;;;;;;18.66;93.68;99595.03;4235981;28;20233;-66
2022/08/22 04:35:45;;;;;;;18.00;8.73;;;;;;;18.62;93.28;99600.06;4209361;28;20245;-65
2022/08/22 04:38:21;;;;;;;17.73;8.63;;;;;;;18.68;92.94;99596.50;4187221;28;20239;-65
2022/08/22 04:41:12;;;;;;;19.93;9.03;;;;;;;18.61;93.74;99595.69;4184385;28;20237;-65
2022/08/22 04:43:53;;;;;;;19.10;8.60;;;;;;;18.74;93.04;99597.47;4215800;28;20234;-65
2022/08/22 04:46:31;;;;;;;14.03;8.60;;;;;;;18.80;92.78;99606.56;4203733;28;20254;-67
2022/08/22 04:49:19;;;;;;;16.90;9.37;;;;;;;18.74;92.30;99608.25;4189047;28;21692;-64
2022/08/22 04:51:52;;;;;;;16.87;9.60;;;;;;;18.75;92.44;99608.06;4171222;28;23050;-65
2022/08/22 04:54:41;;;;;;;12.37;8.33;;;;;;;18.65;92.93;99614.97;4196041;28;21809;-66
2022/08/22 04:57:24;;;;;;;16.23;9.00;;;;;;;18.75;92.76;99615.28;4189337;28;20283;-64
2022/08/22 04:59:57;;;;;;;17.30;8.43;;;;;;;18.83;92.31;99615.06;4201788;28;20252;-67
2022/08/22 05:02:26;;;;;;;18.17;9.10;;;;;;;18.90;91.76;99617.72;4188669;28;20234;-66
2022/08/22 05:05:02;;;;;;;14.50;9.10;;;;;;;18.95;91.74;99616.00;4189371;28;20242;-66
2022/08/22 05:07:35;;;;;;;20.30;9.03;;;;;;;19.10;90.77;99617.53;4192154;28;23301;-63
2022/08/22 05:10:07;;;;;;;15.80;9.50;;;;;;;19.07;90.59;99620.69;4189678;28;20434;-65
2022/08/22 05:12:50;;;;;;;17.27;9.27;;;;;;;19.12;90.39;99618.13;4187400;28;20230;-67
2022/08/22 05:15:23;;;;;;;17.67;9.20;;;;;;;19.17;90.44;99615.59;4199541;28;20563;-66
2022/08/22 05:17:54;;;;;;;16.33;8.50;;;;;;;19.27;89.99;99625.88;4187021;28;23465;-67
2022/08/22 05:20:22;;;;;;;17.77;9.40;;;;;;;19.33;89.92;99623.13;4200375;28;20251;-65
2022/08/22 05:22:52;;;;;;;18.60;8.70;;;;;;;19.48;88.97;99628.19;4200559;28;20299;-65
2022/08/22 05:25:25;;;;;;;18.40;8.20;;;;;;;19.53;88.32;99624.81;4197600;28;21124;-65
2022/08/22 05:28:24;;;;;;;16.57;9.20;;;;;;;19.56;88.14;99627.88;4201526;28;20230;-67
2022/08/22 05:30:52;;;;;;;30.20;8.67;;;;;;;19.65;87.64;99630.31;4194563;28;21718;-67
2022/08/22 05:33:41;;;;;;;16.40;8.37;;;;;;;19.74;87.35;99639.78;4194906;28;22496;-65
2022/08/22 05:36:28;;;;;;;15.23;8.23;;;;;;;19.85;87.15;99640.91;4203100;28;20304;-66
2022/08/22 05:39:12;;;;;;;18.10;8.40;;;;;;;19.99;86.08;99639.69;4192768;28;21216;-67
2022/08/22 05:41:40;;;;;;;16.47;8.67;;;;;;;20.08;85.88;99638.34;4194167;28;21164;-66
2022/08/22 05:44:17;;;;;;;15.30;8.50;;;;;;;20.27;84.94;99641.00;4202794;28;22326;-66
2022/08/22 05:46:49;;;;;;;16.57;8.37;;;;;;;20.40;84.01;99643.53;4207627;28;20252;-67
2022/08/22 05:49:24;;;;;;;19.83;7.87;;;;;;;20.47;83.40;99633.47;4202880;28;23566;-67
2022/08/22 05:52:05;;;;;;;19.67;8.57;;;;;;;20.47;83.09;99636.16;4183405;28;20256;-66
2022/08/22 05:54:41;;;;;;;16.20;8.33;;;;;;;20.63;82.88;99635.53;4194080;28;20305;-66
2022/08/22 05:57:18;;;;;;;21.17;8.63;;;;;;;20.71;83.08;99636.28;4208768;28;20252;-64
2022/08/22 05:59:46;;;;;;;17.77;8.50;;;;;;;20.90;81.61;99642.44;4191549;28;20245;-66
2022/08/22 06:02:21;;;;;;;16.87;8.00;;;;;;;20.79;81.91;99636.78;4187131;28;20232;-65
2022/08/22 06:04:59;;;;;;;16.27;7.63;;;;;;;20.90;81.43;99637.03;4205138;28;20371;-66
2022/08/22 06:07:39;;;;;;;17.13;8.10;;;;;;;20.96;80.94;99633.41;4193683;28;21621;-64
2022/08/22 06:10:19;;;;;;;24.13;7.97;;;;;;;21.03;80.78;99631.41;4204895;28;20227;-66
2022/08/22 06:12:59;;;;;;;19.23;7.73;;;;;;;21.13;79.76;99636.22;4198594;28;20232;-65
2022/08/22 06:15:54;;;;;;;15.47;7.40;;;;;;;21.23;79.43;99645.41;4203872;28;20236;-65
2022/08/22 06:18:25;;;;;;;19.70;7.60;;;;;;;21.48;78.60;99637.09;4219473;28;20369;-66
2022/08/22 06:20:55;;;;;;;15.50;7.47;;;;;;;21.67;77.30;99648.59;4209483;28;20236;-67
2022/08/22 06:23:37;;;;;;;14.53;7.20;;;;;;;21.75;76.78;99636.59;4213668;28;20463;-66
2022/08/22 06:26:05;;;;;;;18.53;7.60;;;;;;;22.00;76.44;99640.91;4218550;28;21458;-65
2022/08/22 06:28:49;;;;;;;24.33;6.83;;;;;;;22.19;74.58;99645.06;4230163;28;20245;-67
2022/08/22 06:31:34;;;;;;;19.87;7.70;;;;;;;22.40;73.52;99645.50;4217093;28;23702;-66
2022/08/22 06:34:22;;;;;;;18.90;7.53;;;;;;;22.65;72.07;99651.41;4226794;28;23511;-65
2022/08/22 06:36:50;;;;;;;13.33;6.73;;;;;;;22.94;71.20;99646.78;4212185;28;20237;-65
2022/08/22 06:39:33;;;;;;;18.07;6.73;;;;;;;23.52;69.39;99658.28;4201022;28;21018;-68
2022/08/22 06:42:10;;;;;;;17.43;7.03;;;;;;;25.46;60.06;99672.41;4219264;28;20243;-67
2022/08/22 06:44:48;;;;;;;21.40;7.33;;;;;;;26.88;53.41;99685.06;4225776;28;20373;-67
2022/08/22 06:47:19;;;;;;;15.70;6.50;;;;;;;28.12;49.29;99696.69;4273797;28;21066;-65
2022/08/22 06:49:47;;;;;;;20.23;7.03;;;;;;;29.29;45.16;99706.19;4288453;28;20332;-65
2022/08/22 06:52:22;;;;;;;18.37;5.93;;;;;;;30.40;42.03;99715.47;4243617;28;20241;-66
2022/08/22 06:54:59;;;;;;;18.83;6.23;;;;;;;30.48;40.88;99707.41;4280061;28;20574;-67
2022/08/22 06:57:36;;;;;;;14.13;5.93;;;;;;;30.66;40.01;99711.25;4253503;28;20232;-66
2022/08/22 07:00:08;;;;;;;13.68;6.43;;;;;;;31.86;37.72;99712.59;4269103;28;21139;-69
2022/08/22 07:02:39;;;;;;;13.88;5.90;;;;;;;31.64;36.83;99724.31;4240141;28;20258;-67
2022/08/22 07:05:09;;;;;;;14.00;6.60;;;;;;;31.06;37.68;99717.28;4271493;28;23974;-66
2022/08/22 07:07:36;;;;;;;17.00;6.30;;;;;;;31.50;37.00;99716.03;4248447;28;20673;-66
2022/08/22 07:10:05;;;;;;;17.35;6.13;;;;;;;31.66;36.46;99710.25;4297197;28;20293;-67
2022/08/22 07:12:36;;;;;;;13.20;5.85;;;;;;;32.26;35.82;99715.69;4234052;28;21225;-66
2022/08/22 07:15:31;;;;;;;15.40;5.70;;;;;;;32.74;34.50;99714.44;4234576;28;20687;-66
2022/08/22 07:18:01;;;;;;;17.52;5.20;;;;;;;33.16;34.18;99726.97;4219916;28;20233;-66
2022/08/22 07:20:33;;;;;;;11.50;5.10;;;;;;;34.21;32.05;99728.38;4238549;28;20328;-66
2022/08/22 07:23:06;;;;;;;14.20;5.90;;;;;;;33.04;33.72;99723.97;4243527;28;22137;-69
2022/08/22 07:25:45;;;;;;;17.45;5.88;;;;;;;30.68;37.83;99706.28;4190547;28;20301;-66
2022/08/22 07:28:31;;;;;;;14.10;6.22;;;;;;;28.44;43.72;99692.72;4225570;28;20580;-67
2022/08/22 07:31:23;;;;;;;21.15;6.32;;;;;;;27.67;46.86;99685.56;4222777;28;20238;-66
2022/08/22 07:33:53;;;;;;;16.38;6.13;;;;;;;27.17;50.58;99679.06;4213971;28;20611;-66
2022/08/22 07:36:24;;;;;;;17.92;6.13;;;;;;;28.27;47.39;99699.38;4213768;28;24537;-67
2022/08/22 07:39:08;;;;;;;14.18;5.88;;;;;;;30.56;41.16;99703.16;4203506;28;20773;-65
2022/08/22 07:41:53;;;;;;;12.43;5.00;;;;;;;33.14;35.63;99726.44;4239163;28;20947;-66
2022/08/22 07:44:24;;;;;;;21.00;5.68;;;;;;;34.81;31.87;99746.22;4226342;28;20241;-70
2022/08/22 07:47:15;;;;;;;12.57;5.55;;;;;;;34.78;31.58;99744.09;4212638;28;20253;-75
2022/08/22 07:49:51;;;;;;;23.98;5.97;;;;;;;34.18;32.10;99744.75;4231158;28;20236;-73
2022/08/22 07:52:18;;;;;;;15.88;5.38;;;;;;;34.36;31.67;99738.16;4257597;28;21246;-73
2022/08/22 07:54:54;;;;;;;15.63;5.70;;;;;;;35.61;29.68;99745.06;4248911;28;20295;-71
2022/08/22 07:57:28;;;;;;;18.85;6.10;;;;;;;34.33;31.52;99736.03;4204402;28;20236;-74
2022/08/22 07:59:58;;;;;;;12.48;5.97;;;;;;;33.75;32.32;99743.41;4233216;28;20238;-74
2022/08/22 08:02:26;;;;;;;16.08;5.88;;;;;;;31.82;36.19;99719.88;4286347;28;24984;-81
2022/08/22 08:04:55;;;;;;;21.73;6.00;;;;;;;30.12;39.82;99706.19;4211685;28;20252;-75
2022/08/22 08:07:26;;;;;;;21.77;5.80;;;;;;;29.73;42.64;99702.47;4272746;28;20244;-77
2022/08/22 08:10:02;;;;;;;12.50;5.53;;;;;;;28.74;44.53;99697.22;4247371;28;20534;-74
2022/08/22 08:12:43;;;;;;;20.33;6.35;;;;;;;28.54;45.05;99692.69;4248514;28;20240;-76
2022/08/22 08:15:24;;;;;;;19.03;6.30;;;;;;;28.39;46.69;99693.56;4218007;28;20376;-77
2022/08/22 08:17:55;;;;;;;16.52;6.38;;;;;;;28.33;47.91;99686.47;4276106;28;20228;-70
2022/08/22 08:20:26;;;;;;;19.70;6.33;;;;;;;28.25;47.45;99698.00;4325117;28;20291;-74
2022/08/22 08:22:54;;;;;;;16.37;6.77;;;;;;;28.11;48.39;99689.59;4234314;28;21574;-72
2022/08/22 08:25:25;;;;;;;12.98;5.97;;;;;;;28.03;48.88;99692.91;4267732;28;20244;-75
2022/08/22 08:30:42;;;;;;;18.70;6.70;;;;;;;27.89;49.05;99690.75;4312478;28;20273;-77
2022/08/22 08:33:13;;;;;;;18.47;5.80;;;;;;;27.40;50.14;99679.63;4245093;28;20441;-71
2022/08/22 08:36:00;;;;;;;21.47;6.50;;;;;;;26.87;51.83;99680.66;4241136;28;21097;-75
2022/08/22 08:38:35;;;;;;;20.20;6.47;;;;;;;26.99;52.11;99677.66;4221350;28;20249;-72
2022/08/22 08:41:20;;;;;;;16.20;6.23;;;;;;;27.13;52.16;99683.41;4214963;28;20292;-74
2022/08/22 08:44:02;;;;;;;12.90;5.93;;;;;;;27.14;51.57;99672.22;4244129;28;20248;-73
2022/08/22 08:46:39;;;;;;;17.83;6.23;;;;;;;27.12;51.90;99676.31;4244065;28;20323;-77
2022/08/22 08:49:17;;;;;;;21.67;5.97;;;;;;;27.03;52.89;99677.97;4236999;28;20236;-72
2022/08/22 08:52:24;;;;;;;19.00;6.23;;;;;;;27.18;53.05;99675.22;4226204;28;21749;-65
2022/08/22 08:55:09;;;;;;;18.60;5.67;;;;;;;27.13;52.13;99675.22;4240792;28;20247;-75
2022/08/22 08:58:25;;;;;;;19.53;6.10;;;;;;;27.11;52.42;99685.59;4278778;28;20236;-69
2022/08/22 09:01:01;;;;;;;11.93;5.40;;;;;;;27.03;51.44;99676.03;4226314;28;20782;-73
2022/08/22 09:04:04;;;;;;;17.43;4.77;;;;;;;26.61;51.83;99679.00;4205810;28;20775;-75
2022/08/22 09:07:08;;;;;;;20.83;5.50;;;;;;;26.69;51.10;99682.03;4230921;28;20288;-72
2022/08/22 09:10:13;;;;;;;21.07;5.43;;;;;;;26.45;52.83;99673.47;4264625;28;20587;-70
2022/08/22 09:12:48;;;;;;;16.77;5.60;;;;;;;26.90;51.77;99677.41;4236525;28;20237;-74
2022/08/22 09:15:44;;;;;;;10.77;4.70;;;;;;;26.84;50.63;99673.03;4206269;28;21967;-74
2022/08/22 09:18:43;;;;;;;20.83;5.73;;;;;;;26.89;50.52;99675.75;4240146;28;21585;-73
2022/08/22 09:21:36;;;;;;;14.10;4.45;;;;;;;27.45;49.79;99682.34;4215503;28;20249;-73
2022/08/22 09:24:09;;;;;;;13.27;4.93;;;;;;;27.45;49.03;99682.34;4197207;28;20603;-71
2022/08/22 09:26:53;;;;;;;16.47;4.70;;;;;;;27.17;49.82;99674.41;4216895;28;20239;-70
2022/08/22 09:29:25;;;;;;;13.05;5.22;;;;;;;27.15;49.01;99668.38;4195614;28;20254;-68
2022/08/22 09:32:11;;;;;;;10.20;5.07;;;;;;;26.77;50.51;99675.19;4212439;28;20242;-71
2022/08/22 09:35:00;;;;;;;11.30;5.07;;;;;;;26.42;52.11;99665.81;4212203;28;20243;-67
2022/08/22 09:37:48;;;;;;;11.67;4.53;;;;;;;26.25;53.03;99668.78;4206232;28;20586;-68
2022/08/22 09:40:39;;;;;;;11.60;4.63;;;;;;;25.98;52.68;99665.38;4272989;28;22522;-71
2022/08/22 09:43:31;;;;;;;7.20;4.70;;;;;;;25.65;53.53;99664.63;4222882;28;22782;-69
2022/08/22 09:46:19;;;;;;;13.63;4.93;;;;;;;25.44;54.09;99658.22;4230092;28;20256;-70
2022/08/22 09:49:06;;;;;;;9.50;4.27;;;;;;;25.52;55.07;99656.91;4247425;28;20247;-71
2022/08/22 09:51:38;;;;;;;10.17;4.20;;;;;;;25.43;55.00;99662.06;4210969;28;20236;-71
2022/08/22 09:54:31;;;;;;;12.23;5.03;;;;;;;25.50;54.99;99657.19;4217656;28;20239;-70
2022/08/22 09:57:12;;;;;;;10.97;4.80;;;;;;;25.69;56.13;99652.94;4322042;28;20351;-71
2022/08/22 09:59:48;;;;;;;15.60;4.73;;;;;;;25.68;54.67;99655.91;4214010;28;20475;-70
2022/08/22 10:02:31;;;;;;;8.97;4.73;;;;;;;25.58;54.03;99656.69;4234073;28;23763;-72
2022/08/22 10:05:27;;;;;;;13.23;4.57;;;;;;;25.48;55.19;99653.91;4242862;28;20232;-70
2022/08/22 10:08:18;;;;;;;9.93;4.63;;;;;;;25.68;54.66;99664.94;4232582;28;20287;-69
2022/08/22 10:11:17;;;;;;;7.97;4.13;;;;;;;26.13;53.65;99667.34;4217681;28;20239;-69
2022/08/22 10:13:55;;;;;;;6.63;3.90;;;;;;;25.76;53.64;99660.06;4210176;28;20247;-67
2022/08/22 10:16:35;;;;;;;10.63;5.10;;;;;;;25.52;53.76;99656.91;4199783;28;20315;-68
2022/08/22 10:19:14;;;;;;;9.97;4.93;;;;;;;25.38;54.96;99654.66;4215187;28;22859;-71
2022/08/22 10:22:22;;;;;;;13.73;4.90;;;;;;;25.27;55.11;99656.50;4193198;28;20311;-71
2022/08/22 10:24:51;;;;;;;10.70;4.60;;;;;;;25.46;55.50;99656.06;4185184;28;20244;-70
2022/08/22 10:27:30;;;;;;;9.67;4.43;;;;;;;25.47;54.48;99658.53;4204231;28;20406;-69
2022/08/22 10:30:24;;;;;;;8.93;5.33;;;;;;;25.47;54.83;99669.44;4203094;28;20245;-72
2022/08/22 10:33:12;;;;;;;11.63;4.90;;;;;;;25.63;54.83;99669.53;4218633;28;20338;-70
2022/08/22 10:35:46;;;;;;;11.37;5.13;;;;;;;25.66;54.76;99669.84;4195751;28;20380;-68
2022/08/22 10:38:25;;;;;;;8.27;4.90;;;;;;;25.68;54.28;99673.13;4197693;28;20561;-69
2022/08/22 10:40:57;;;;;;;11.07;4.50;;;;;;;25.77;53.06;99662.50;4205857;28;20228;-68
2022/08/22 10:43:49;;;;;;;12.30;5.03;;;;;;;26.01;52.87;99668.41;4226784;28;20314;-73
2022/08/22 10:46:48;;;;;;;7.17;4.77;;;;;;;26.03;53.90;99668.13;4204512;28;20974;-69
2022/08/22 10:49:35;;;;;;;9.10;4.40;;;;;;;26.11;53.86;99676.63;4228235;28;25625;-69
2022/08/22 10:52:07;;;;;;;8.70;4.27;;;;;;;26.16;52.94;99670.38;4237170;28;20224;-76
2022/08/22 10:54:45;;;;;;;10.60;4.13;;;;;;;25.96;52.52;99673.81;4219695;28;22113;-70
2022/08/22 10:57:23;;;;;;;12.50;4.37;;;;;;;25.79;53.67;99667.72;4232038;28;25548;-73
2022/08/22 11:00:03;;;;;;;7.87;4.50;;;;;;;25.78;53.45;99660.59;4243528;28;21032;-71
2022/08/22 11:02:40;;;;;;;8.63;4.23;;;;;;;25.64;53.41;99671.19;4209853;28;20237;-74
2022/08/22 11:05:17;;;;;;;7.87;4.47;;;;;;;25.68;54.17;99672.28;4212824;28;20232;-74
2022/08/22 11:07:44;;;;;;;10.07;4.33;;;;;;;25.86;53.86;99669.13;4200879;28;20241;-69
2022/08/22 11:10:52;;;;;;;11.27;4.73;;;;;;;26.04;54.38;99667.88;4220154;28;21852;-74
2022/08/22 11:13:38;;;;;;;11.23;4.80;;;;;;;26.05;54.98;99664.03;4214595;28;20241;-74
2022/08/22 11:16:20;;;;;;;8.40;4.07;;;;;;;25.84;53.18;99673.19;4189279;28;22101;-71
2022/08/22 11:19:07;;;;;;;11.33;4.77;;;;;;;25.68;53.92;99667.66;4201797;28;20253;-70
2022/08/22 11:22:28;;;;;;;11.10;5.00;;;;;;;25.72;54.63;99661.69;4274203;28;21366;-71
2022/08/22 11:25:16;;;;;;;11.63;4.70;;;;;;;25.46;53.81;99658.78;4196682;28;20239;-71
2022/08/22 11:28:09;;;;;;;7.40;4.40;;;;;;;25.58;54.20;99673.03;4214936;28;20321;-70
2022/08/22 11:31:18;;;;;;;11.77;4.30;;;;;;;25.53;55.54;99673.00;4185361;28;20284;-71
2022/08/22 11:34:12;;;;;;;9.30;4.60;;;;;;;25.53;54.55;99669.47;4186680;28;20616;-73
2022/08/22 11:36:46;;;;;;;10.47;5.30;;;;;;;25.47;55.16;99671.31;4205215;28;26032;-73
2022/08/22 11:39:32;;;;;;;11.83;4.70;;;;;;;25.48;55.49;99670.25;4204396;28;21041;-71
2022/08/22 11:42:13;;;;;;;7.90;4.77;;;;;;;25.58;55.91;99673.03;4217197;28;20280;-70
2022/08/22 11:44:55;;;;;;;12.63;4.23;;;;;;;25.72;54.87;99669.84;4197547;28;20228;-71
2022/08/22 11:47:26;;;;;;;18.10;4.77;;;;;;;25.90;54.39;99672.16;4240561;28;22840;-70
2022/08/22 11:50:14;;;;;;;14.53;4.67;;;;;;;25.92;54.11;99672.72;4211297;28;20326;-73
2022/08/22 11:53:00;;;;;;;7.93;4.97;;;;;;;26.05;53.16;99672.22;4242033;28;25868;-73
2022/08/22 11:55:43;;;;;;;10.23;4.83;;;;;;;26.06;55.59;99670.34;4226100;28;20241;-73
2022/08/22 11:58:25;;;;;;;12.57;4.50;;;;;;;26.14;52.77;99680.72;4220517;28;20277;-66
2022/08/22 12:01:00;;;;;;;15.30;4.93;;;;;;;26.26;53.08;99683.22;4192210;28;20305;-67
2022/08/22 12:03:41;;;;;;;12.75;4.63;;;;;;;26.19;52.24;99680.75;4209152;28;20236;-66
2022/08/22 12:06:32;;;;;;;11.70;4.53;;;;;;;26.24;51.61;99688.13;4243531;28;20273;-66
2022/08/22 12:09:16;;;;;;;12.47;5.00;;;;;;;26.29;51.65;99678.06;4217819;28;20240;-66
2022/08/22 12:11:54;;;;;;;11.90;4.47;;;;;;;26.45;51.80;99681.63;4214016;28;21527;-63
2022/08/22 12:14:40;;;;;;;10.40;4.70;;;;;;;26.47;51.26;99682.19;4211056;28;22038;-66
2022/08/22 12:17:18;;;;;;;11.93;5.57;;;;;;;26.38;50.69;99680.25;4199316;28;20244;-65
2022/08/22 12:20:16;;;;;;;15.10;5.97;;;;;;;26.27;51.33;99677.50;4221987;28;21093;-71
2022/08/22 12:23:03;;;;;;;12.23;4.90;;;;;;;26.11;52.52;99670.34;4218448;28;20687;-64
2022/08/22 12:25:52;;;;;;;15.47;5.43;;;;;;;26.16;53.07;99680.47;4226809;28;20244;-66
2022/08/22 12:28:30;;;;;;;12.30;4.63;;;;;;;26.17;52.93;99679.38;4238378;28;20243;-63
2022/08/22 12:31:05;;;;;;;11.30;5.20;;;;;;;26.29;53.52;99677.22;4220563;28;20233;-63
2022/08/22 12:33:51;;;;;;;15.77;5.07;;;;;;;26.24;52.67;99672.56;4206756;28;20230;-67
2022/08/22 12:36:49;;;;;;;13.23;5.43;;;;;;;26.06;53.28;99673.88;4227010;28;20329;-67
2022/08/22 12:39:53;;;;;;;10.43;5.00;;;;;;;25.91;53.42;99665.63;4226077;28;20236;-66